createdAt,value
2022-08-07T00:00:05.671Z,102220.84
2022-08-07T00:02:36.426Z,102211.66
2022-08-07T00:05:07.131Z,102218.06
2022-08-07T00:07:40.543Z,102214.44
2022-08-07T00:10:25.991Z,102211.66
2022-08-07T00:13:00.383Z,102212.50
2022-08-07T00:15:37.644Z,102203.34
2022-08-07T00:18:18.719Z,102206.94
2022-08-07T00:20:45.564Z,102204.16
2022-08-07T00:23:14.030Z,102204.16
2022-08-07T00:25:41.415Z,102204.16
2022-08-07T00:28:07.906Z,102202.50
2022-08-07T00:30:36.439Z,102200.56
2022-08-07T00:33:02.281Z,102201.69
2022-08-07T00:35:29.624Z,102199.47
2022-08-07T00:37:56.257Z,102203.34
2022-08-07T00:40:39.638Z,102193.34
2022-08-07T00:43:12.823Z,102195.00
2022-08-07T00:45:55.638Z,102190.56
2022-08-07T00:48:30.824Z,102192.22
2022-08-07T00:50:57.539Z,102189.44
2022-08-07T00:53:23.250Z,102187.78
2022-08-07T00:56:02.425Z,102185.84
2022-08-07T00:58:29.880Z,102189.44
2022-08-07T01:00:55.510Z,102183.06
2022-08-07T01:03:25.476Z,102191.13
2022-08-07T01:06:07.613Z,102182.22
2022-08-07T01:08:33.858Z,102180.28
2022-08-07T01:11:00.732Z,102181.09
2022-08-07T01:13:55.546Z,102169.16
2022-08-07T01:16:30.318Z,102174.72
2022-08-07T01:18:56.790Z,102172.78
2022-08-07T01:21:26.090Z,102167.22
2022-08-07T01:23:53.361Z,102167.22
2022-08-07T01:26:20.239Z,102167.22
2022-08-07T01:28:48.287Z,102163.59
2022-08-07T01:31:17.753Z,102163.59
2022-08-07T01:33:53.577Z,102161.94
2022-08-07T01:36:22.790Z,102163.59
2022-08-07T01:39:00.153Z,102163.59
2022-08-07T01:41:26.965Z,102161.66
2022-08-07T01:43:52.865Z,102163.59
2022-08-07T01:46:19.503Z,102163.59
2022-08-07T01:48:47.928Z,102154.16
2022-08-07T01:51:58.673Z,102150.84
2022-08-07T01:54:12.683Z,102151.66
2022-08-07T01:56:51.413Z,102155.28
2022-08-07T01:59:22.240Z,102152.50
2022-08-07T02:01:59.781Z,102160.84
2022-08-07T02:04:37.904Z,102162.78
2022-08-07T02:07:06.095Z,102161.94
2022-08-07T02:09:33.887Z,102158.06
2022-08-07T02:12:18.539Z,102154.44
2022-08-07T02:14:46.628Z,102158.88
2022-08-07T02:17:12.514Z,102156.09
2022-08-07T02:20:04.586Z,102153.63
2022-08-07T02:22:30.514Z,102160.00
2022-08-07T02:24:56.714Z,102154.44
2022-08-07T02:27:24.595Z,102148.88
2022-08-07T02:29:54.532Z,102148.06
2022-08-07T02:32:23.499Z,102150.84
2022-08-07T02:34:53.887Z,102148.06
2022-08-07T02:37:21.126Z,102148.88
2022-08-07T02:40:11.789Z,102146.13
2022-08-07T02:42:34.162Z,102146.13
2022-08-07T02:45:13.611Z,102139.72
2022-08-07T02:47:49.081Z,102149.72
2022-08-07T02:50:15.128Z,102146.13
2022-08-07T02:52:47.805Z,102142.50
2022-08-07T02:55:28.628Z,102141.69
2022-08-07T02:58:10.047Z,102142.50
2022-08-07T03:00:39.257Z,102134.16
2022-08-07T03:03:07.061Z,102147.22
2022-08-07T03:05:39.565Z,102143.34
2022-08-07T03:08:10.112Z,102147.78
2022-08-07T03:10:41.106Z,102139.44
2022-08-07T03:13:14.489Z,102146.13
2022-08-07T03:15:56.833Z,102142.50
2022-08-07T03:18:34.322Z,102146.13
2022-08-07T03:21:03.468Z,102145.28
2022-08-07T03:23:33.961Z,102146.13
2022-08-07T03:26:21.205Z,102143.34
2022-08-07T03:28:49.601Z,102139.72
2022-08-07T03:31:18.410Z,102136.94
2022-08-07T03:33:46.061Z,102130.56
2022-08-07T03:36:14.568Z,102136.94
2022-08-07T03:38:43.152Z,102134.16
2022-08-07T03:41:11.451Z,102137.78
2022-08-07T03:43:37.844Z,102136.13
2022-08-07T03:46:18.413Z,102126.97
2022-08-07T03:48:45.420Z,102129.72
2022-08-07T03:51:31.023Z,102132.50
2022-08-07T03:54:36.169Z,102128.63
2022-08-07T03:57:04.006Z,102133.34
2022-08-07T03:59:33.479Z,102129.44
2022-08-07T04:01:59.544Z,102134.16
2022-08-07T04:04:25.339Z,102133.06
2022-08-07T04:06:52.252Z,102128.63
2022-08-07T04:09:19.476Z,102135.00
2022-08-07T04:12:24.568Z,102132.50
2022-08-07T04:14:38.892Z,102133.34
2022-08-07T04:17:20.336Z,102119.44
2022-08-07T04:19:52.832Z,102127.78
2022-08-07T04:22:23.479Z,102124.19
2022-08-07T04:24:54.911Z,102128.63
2022-08-07T04:27:25.780Z,102131.41
2022-08-07T04:30:01.244Z,102127.78
2022-08-07T04:32:34.287Z,102139.72
2022-08-07T04:35:03.896Z,102134.16
2022-08-07T04:37:40.383Z,102141.69
2022-08-07T04:40:17.404Z,102140.84
2022-08-07T04:42:45.448Z,102150.84
2022-08-07T04:45:22.733Z,102150.00
2022-08-07T04:48:10.656Z,102146.41
2022-08-07T04:50:44.528Z,102152.78
2022-08-07T04:54:01.728Z,102140.84
2022-08-07T04:58:10.887Z,102146.41
2022-08-07T05:00:10.784Z,102145.56
2022-08-07T05:02:23.334Z,102144.44
2022-08-07T05:05:52.857Z,102149.19
2022-08-07T05:08:03.857Z,102149.19
2022-08-07T05:10:38.270Z,102152.78
2022-08-07T05:14:44.763Z,102150.84
2022-08-07T05:15:55.130Z,102153.63
2022-08-07T05:18:29.593Z,102152.78
2022-08-07T05:20:57.554Z,102153.91
2022-08-07T05:23:32.308Z,102155.56
2022-08-07T05:26:13.647Z,102160.28
2022-08-07T05:28:48.604Z,102161.13
2022-08-07T05:31:17.382Z,102161.94
2022-08-07T05:34:01.151Z,102159.47
2022-08-07T05:36:35.087Z,102153.06
2022-08-07T05:40:05.018Z,102166.69
2022-08-07T05:42:01.552Z,102165.03
2022-08-07T05:44:30.186Z,102167.78
2022-08-07T05:46:55.901Z,102173.34
2022-08-07T05:49:22.092Z,102167.78
2022-08-07T05:51:47.756Z,102178.06
2022-08-07T05:54:31.233Z,102167.78
2022-08-07T05:57:02.118Z,102177.78
2022-08-07T05:59:38.984Z,102171.66
2022-08-07T06:02:22.512Z,102175.00
2022-08-07T06:04:57.070Z,102182.78
2022-08-07T06:08:14.572Z,102182.78
2022-08-07T06:10:15.124Z,102182.50
2022-08-07T06:12:41.271Z,102185.56
2022-08-07T06:15:08.883Z,102189.19
2022-08-07T06:17:37.555Z,102195.56
2022-08-07T06:20:05.609Z,102195.56
2022-08-07T06:22:38.535Z,102188.91
2022-08-07T06:25:05.203Z,102191.97
2022-08-07T06:27:43.961Z,102190.03
2022-08-07T06:30:31.819Z,102182.78
2022-08-07T06:33:03.544Z,102188.06
2022-08-07T06:35:39.054Z,102183.63
2022-08-07T06:38:20.230Z,102187.25
2022-08-07T06:40:49.173Z,102185.56
2022-08-07T06:43:21.034Z,102178.06
2022-08-07T06:45:48.489Z,102180.00
2022-08-07T06:48:14.121Z,102180.00
2022-08-07T06:50:43.340Z,102174.44
2022-08-07T06:53:18.577Z,102174.44
2022-08-07T06:56:01.896Z,102168.88
2022-08-07T06:58:28.889Z,102165.28
2022-08-07T07:00:58.191Z,102162.50
2022-08-07T07:03:39.729Z,102166.09
2022-08-07T07:06:11.242Z,102168.88
2022-08-07T07:08:39.948Z,102168.88
2022-08-07T07:11:14.008Z,102170.00
2022-08-07T07:14:02.537Z,102173.59
2022-08-07T07:16:30.775Z,102168.88
2022-08-07T07:19:04.106Z,102168.06
2022-08-07T07:22:12.143Z,102172.53
2022-08-07T07:24:34.212Z,102168.06
2022-08-07T07:27:02.868Z,102175.56
2022-08-07T07:29:56.018Z,102163.31
2022-08-07T07:32:19.901Z,102167.22
2022-08-07T07:34:48.657Z,102167.22
2022-08-07T07:37:44.426Z,102156.13
2022-08-07T07:40:10.231Z,102165.28
2022-08-07T07:42:41.991Z,102168.06
2022-08-07T07:45:09.095Z,102162.50
2022-08-07T07:47:52.177Z,102166.38
2022-08-07T07:50:33.877Z,102168.34
2022-08-07T07:53:05.389Z,102155.28
2022-08-07T07:55:57.987Z,102152.22
2022-08-07T07:58:28.932Z,102153.34
2022-08-07T08:00:54.473Z,102150.56
2022-08-07T08:04:09.437Z,102151.66
2022-08-07T08:06:11.628Z,102144.16
2022-08-07T08:08:41.924Z,102150.56
2022-08-07T08:11:13.595Z,102147.78
2022-08-07T08:13:53.208Z,102147.78
2022-08-07T08:16:25.152Z,102151.66
2022-08-07T08:19:17.706Z,102149.72
2022-08-07T08:22:19.049Z,102149.72
2022-08-07T08:25:25.111Z,102140.56
2022-08-07T08:27:56.593Z,102131.09
2022-08-07T08:30:28.320Z,102138.63
2022-08-07T08:32:57.855Z,102133.06
2022-08-07T08:35:25.176Z,102130.28
2022-08-07T08:38:01.418Z,102132.22
2022-08-07T08:40:32.333Z,102130.53
2022-08-07T08:43:08.573Z,102131.09
2022-08-07T08:45:59.091Z,102127.50
2022-08-07T08:48:50.973Z,102133.06
2022-08-07T08:52:13.434Z,102120.00
2022-08-07T08:54:56.238Z,102121.94
2022-08-07T08:57:35.530Z,102126.69
2022-08-07T09:00:07.430Z,102126.69
2022-08-07T09:02:58.010Z,102117.50
2022-08-07T09:05:37.157Z,102113.63
2022-08-07T09:11:43.008Z,102113.63
2022-08-07T09:14:31.366Z,102112.78
2022-08-07T09:17:04.214Z,102109.19
2022-08-07T09:19:53.611Z,102110.00
2022-08-07T09:24:32.557Z,102113.88
2022-08-07T09:26:00.211Z,102107.47
2022-08-07T09:30:01.463Z,102103.63
2022-08-07T09:31:49.311Z,102112.78
2022-08-07T09:34:21.268Z,102111.09
2022-08-07T09:36:58.944Z,102115.56
2022-08-07T09:39:54.869Z,102101.66
2022-08-07T09:47:20.077Z,102111.97
2022-08-07T09:48:50.281Z,102097.19
2022-08-07T09:52:15.955Z,102095.28
2022-08-07T09:54:46.785Z,102089.72
2022-08-07T09:57:47.142Z,102086.09
2022-08-07T10:00:15.849Z,102089.72
2022-08-07T10:04:05.293Z,102087.78
2022-08-07T10:06:29.740Z,102077.50
2022-08-07T10:09:08.732Z,102077.50
2022-08-07T10:12:21.451Z,102081.41
2022-08-07T10:15:04.353Z,102071.38
2022-08-07T10:18:01.678Z,102063.88
2022-08-07T10:20:38.897Z,102070.28
2022-08-07T10:24:06.893Z,102065.81
2022-08-07T10:29:35.038Z,102072.19
2022-08-07T10:32:53.778Z,102059.19
2022-08-07T10:35:53.674Z,102055.53
2022-08-07T10:38:36.302Z,102052.75
2022-08-07T10:41:51.944Z,102049.97
2022-08-07T10:44:28.362Z,102043.59
2022-08-07T10:47:16.794Z,102055.53
2022-08-07T10:49:50.765Z,102048.06
2022-08-07T10:52:33.601Z,102044.44
2022-08-07T10:55:36.817Z,102033.31
2022-08-07T10:58:32.010Z,102030.53
2022-08-07T11:01:51.405Z,102032.22
2022-08-07T11:05:08.699Z,102016.09
2022-08-07T11:08:02.660Z,102018.59
2022-08-07T11:10:59.799Z,102013.88
2022-08-07T11:14:43.717Z,102009.41
2022-08-07T11:16:59.546Z,102007.50
2022-08-07T11:19:50.528Z,102010.25
2022-08-07T11:22:32.311Z,102011.97
2022-08-07T11:25:16.048Z,101999.97
2022-08-07T11:28:01.906Z,102005.53
2022-08-07T11:30:41.662Z,102003.84
2022-08-07T11:33:59.297Z,101998.06
2022-08-07T11:36:39.171Z,101994.44
2022-08-07T11:39:19.545Z,101988.03
2022-08-07T11:42:02.192Z,101983.59
2022-08-07T11:44:35.821Z,101985.28
2022-08-07T11:47:15.397Z,101982.50
2022-08-07T11:50:31.455Z,101981.41
2022-08-07T11:53:15.980Z,101977.75
2022-08-07T11:56:27.251Z,101982.50
2022-08-07T12:00:08.320Z,101980.53
2022-08-07T12:02:30.548Z,101977.19
2022-08-07T12:05:47.073Z,101976.06
2022-08-07T12:08:25.903Z,101977.75
2022-08-07T12:11:20.811Z,101981.41
2022-08-07T12:13:56.224Z,101971.38
2022-08-07T12:16:43.521Z,101974.16
2022-08-07T12:22:55.941Z,101970.53
2022-08-07T12:26:03.363Z,101972.47
2022-08-07T12:29:00.950Z,101970.81
2022-08-07T12:31:52.691Z,101971.38
2022-08-07T12:34:29.401Z,101959.19
2022-08-07T12:36:56.271Z,101953.84
2022-08-07T12:39:44.160Z,101944.69
2022-08-07T12:42:10.228Z,101951.69
2022-08-07T12:44:40.217Z,101948.31
2022-08-07T12:47:27.191Z,101950.00
2022-08-07T12:52:58.765Z,101948.06
2022-08-07T12:55:41.458Z,101941.66
2022-08-07T12:58:17.834Z,101943.59
2022-08-07T13:04:02.454Z,101943.59
2022-08-07T13:07:10.405Z,101943.59
2022-08-07T13:10:39.268Z,101933.31
2022-08-07T13:16:09.791Z,101936.97
2022-08-07T13:21:50.292Z,101923.91
2022-08-07T13:24:21.332Z,101920.28
2022-08-07T13:27:14.830Z,101924.16
2022-08-07T13:29:57.353Z,101924.41
2022-08-07T13:32:32.523Z,101925.84
2022-08-07T13:35:08.743Z,101915.81
2022-08-07T13:37:55.407Z,101916.66
2022-08-07T13:40:36.188Z,101902.19
2022-08-07T13:43:12.207Z,101905.53
2022-08-07T13:46:21.040Z,101898.06
2022-08-07T13:48:34.205Z,101901.94
2022-08-07T13:51:01.896Z,101901.94
2022-08-07T13:53:59.839Z,101899.16
2022-08-07T13:56:36.217Z,101899.16
2022-08-07T13:59:24.873Z,101892.50
2022-08-07T14:02:04.435Z,101888.06
2022-08-07T14:04:35.678Z,101886.97
2022-08-07T14:07:04.848Z,101892.50
2022-08-07T14:10:17.623Z,101879.72
2022-08-07T14:12:27.327Z,101877.78
2022-08-07T14:14:59.517Z,101882.25
2022-08-07T14:18:13.193Z,101873.31
2022-08-07T14:20:40.473Z,101875.00
2022-08-07T14:23:08.317Z,101868.59
2022-08-07T14:25:39.519Z,101873.31
2022-08-07T14:28:14.097Z,101873.06
2022-08-07T14:30:40.749Z,101869.19
2022-08-07T14:33:07.504Z,101870.28
2022-08-07T14:35:45.307Z,101867.75
2022-08-07T14:38:26.313Z,101867.75
2022-08-07T14:41:03.996Z,101867.53
2022-08-07T14:43:57.411Z,101870.28
2022-08-07T14:46:30.641Z,101866.66
2022-08-07T14:48:58.072Z,101868.59
2022-08-07T14:51:27.193Z,101858.31
2022-08-07T14:57:02.914Z,101853.63
2022-08-07T15:00:04.850Z,101853.63
2022-08-07T15:02:34.062Z,101856.41
2022-08-07T15:05:01.731Z,101845.53
2022-08-07T15:07:51.333Z,101851.94
2022-08-07T15:10:26.323Z,101851.09
2022-08-07T15:12:58.228Z,101844.44
2022-08-07T15:15:33.696Z,101844.44
2022-08-07T15:18:14.571Z,101843.34
2022-08-07T15:20:58.334Z,101839.75
2022-08-07T15:25:14.459Z,101843.59
2022-08-07T15:26:21.666Z,101848.06
2022-08-07T15:32:00.886Z,101841.66
2022-08-07T15:34:21.312Z,101839.75
2022-08-07T15:37:04.106Z,101838.88
2022-08-07T15:39:57.312Z,101843.34
2022-08-07T15:45:57.547Z,101836.97
2022-08-07T15:51:08.446Z,101830.28
2022-08-07T15:53:51.810Z,101825.84
2022-08-07T15:56:24.208Z,101825.84
2022-08-07T15:58:57.980Z,101819.19
2022-08-07T16:01:39.305Z,101821.94
2022-08-07T16:04:14.657Z,101821.13
2022-08-07T16:06:49.295Z,101823.06
2022-08-07T16:12:05.190Z,101819.19
2022-08-07T16:14:59.913Z,101805.56
2022-08-07T16:18:02.338Z,101811.97
2022-08-07T16:20:41.730Z,101818.34
2022-08-07T16:23:53.199Z,101817.22
2022-08-07T16:26:30.757Z,101813.63
2022-08-07T16:30:10.356Z,101823.91
2022-08-07T16:32:34.713Z,101818.34
2022-08-07T16:35:52.097Z,101815.56
2022-08-07T16:38:57.454Z,101814.75
2022-08-07T16:41:48.636Z,101806.41
2022-08-07T16:45:04.138Z,101811.97
2022-08-07T16:47:51.216Z,101808.34
2022-08-07T16:50:48.442Z,101812.78
2022-08-07T16:56:18.829Z,101810.00
2022-08-07T16:59:14.201Z,101813.06
2022-08-07T17:01:57.424Z,101820.31
2022-08-07T17:07:28.344Z,101808.34
2022-08-07T17:10:32.596Z,101811.97
2022-08-07T17:13:21.826Z,101806.41
2022-08-07T17:15:58.413Z,101811.09
2022-08-07T17:18:42.288Z,101814.75
2022-08-07T17:21:19.129Z,101806.41
2022-08-07T17:23:56.864Z,101809.19
2022-08-07T17:26:50.019Z,101811.97
2022-08-07T17:30:14.010Z,101814.16
2022-08-07T17:32:52.163Z,101818.34
2022-08-07T17:35:51.305Z,101808.34
2022-08-07T17:38:33.129Z,101818.34
2022-08-07T17:42:00.674Z,101820.31
2022-08-07T17:44:02.198Z,101820.31
2022-08-07T17:46:36.612Z,101820.31
2022-08-07T17:49:14.934Z,101818.34
2022-08-07T17:52:06.128Z,101812.78
2022-08-07T17:54:53.795Z,101815.56
2022-08-07T17:57:56.530Z,101820.00
2022-08-07T18:00:34.078Z,101817.53
2022-08-07T18:03:21.537Z,101817.53
2022-08-07T18:06:16.591Z,101818.34
2022-08-07T18:09:01.425Z,101821.13
2022-08-07T18:12:06.329Z,101821.94
2022-08-07T18:14:37.493Z,101829.47
2022-08-07T18:18:45.627Z,101828.63
2022-08-07T18:21:10.091Z,101829.72
2022-08-07T18:23:41.014Z,101835.00
2022-08-07T18:26:01.350Z,101840.56
2022-08-07T18:28:58.661Z,101838.63
2022-08-07T18:31:38.858Z,101840.56
2022-08-07T18:34:39.360Z,101839.44
2022-08-07T18:38:58.086Z,101846.13
2022-08-07T18:40:59.830Z,101845.00
2022-08-07T18:43:49.101Z,101854.47
2022-08-07T18:46:26.997Z,101855.28
2022-08-07T18:50:31.694Z,101849.72
2022-08-07T18:52:53.147Z,101853.63
2022-08-07T18:55:42.745Z,101861.09
2022-08-07T18:58:51.237Z,101858.88
2022-08-07T19:02:32.246Z,101869.19
2022-08-07T19:05:15.380Z,101870.00
2022-08-07T19:08:03.922Z,101868.34
2022-08-07T19:10:51.230Z,101873.91
2022-08-07T19:13:23.509Z,101874.72
2022-08-07T19:16:05.330Z,101878.63
2022-08-07T19:18:53.597Z,101879.47
2022-08-07T19:21:47.466Z,101886.66
2022-08-07T19:24:30.496Z,101888.63
2022-08-07T19:28:56.698Z,101891.41
2022-08-07T19:30:57.101Z,101888.63
2022-08-07T19:32:44.122Z,101898.91
2022-08-07T19:35:14.601Z,101899.72
2022-08-07T19:37:56.714Z,101905.28
2022-08-07T19:40:31.923Z,101912.78
2022-08-07T19:42:59.629Z,101908.88
2022-08-07T19:46:01.289Z,101916.41
2022-08-07T19:48:18.628Z,101917.50
2022-08-07T19:50:53.422Z,101916.41
2022-08-07T19:54:35.361Z,101918.34
2022-08-07T19:56:12.173Z,101919.16
2022-08-07T19:58:40.008Z,101919.16
2022-08-07T20:01:19.576Z,101924.72
2022-08-07T20:03:47.112Z,101927.50
2022-08-07T20:06:15.540Z,101920.28
2022-08-07T20:09:00.839Z,101917.50
2022-08-07T20:12:00.902Z,101918.34
2022-08-07T20:14:20.768Z,101923.91
2022-08-07T20:16:54.504Z,101935.00
2022-08-07T20:19:24.173Z,101923.91
2022-08-07T20:21:55.260Z,101924.72
2022-08-07T20:24:28.905Z,101929.44
2022-08-07T20:26:58.123Z,101936.66
2022-08-07T20:29:48.092Z,101927.50
2022-08-07T20:32:23.128Z,101928.34
2022-08-07T20:34:53.673Z,101925.56
2022-08-07T20:37:21.563Z,101924.72
2022-08-07T20:40:03.925Z,101933.88
2022-08-07T20:42:31.114Z,101932.22
2022-08-07T20:45:00.166Z,101934.72
2022-08-07T20:47:56.565Z,101933.06
2022-08-07T20:50:13.671Z,101928.34
2022-08-07T20:52:51.409Z,101935.84
2022-08-07T20:55:20.284Z,101932.22
2022-08-07T20:57:59.990Z,101937.78
2022-08-07T21:00:38.091Z,101935.00
2022-08-07T21:03:09.790Z,101930.28
2022-08-07T21:05:54.679Z,101941.41
2022-08-07T21:08:38.101Z,101944.16
2022-08-07T21:11:11.961Z,101945.00
2022-08-07T21:13:57.575Z,101936.66
2022-08-07T21:16:30.493Z,101939.44
2022-08-07T21:18:57.223Z,101939.44
2022-08-07T21:21:27.222Z,101936.66
2022-08-07T21:29:21.223Z,101941.41
2022-08-07T21:32:48.103Z,101943.88
2022-08-07T21:35:08.073Z,101942.22
2022-08-07T21:37:57.993Z,101948.59
2022-08-07T21:40:41.042Z,101956.94
2022-08-07T21:43:16.973Z,101948.59
2022-08-07T21:46:10.743Z,101953.34
2022-08-07T21:49:03.096Z,101960.00
2022-08-07T21:51:51.321Z,101966.41
2022-08-07T21:57:44.758Z,101961.66
2022-08-07T22:00:22.826Z,101973.91
2022-08-07T22:02:57.230Z,101972.78
2022-08-07T22:05:45.544Z,101974.72
2022-08-07T22:08:13.670Z,101964.44
2022-08-07T22:10:42.370Z,101964.44
2022-08-07T22:13:12.070Z,101974.44
2022-08-07T22:16:42.501Z,101973.59
2022-08-07T22:18:42.325Z,101975.56
2022-08-07T22:22:04.763Z,101979.16
2022-08-07T22:24:22.592Z,101976.38
2022-08-07T22:27:05.710Z,101978.34
2022-08-07T22:29:48.494Z,101974.72
2022-08-07T22:32:46.220Z,101980.28
2022-08-07T22:35:12.153Z,101975.56
2022-08-07T22:38:05.397Z,101980.28
2022-08-07T22:40:44.332Z,101980.28
2022-08-07T22:43:15.130Z,101985.53
2022-08-07T22:47:03.809Z,101987.78
2022-08-07T22:49:37.673Z,101988.63
2022-08-07T22:52:36.837Z,101986.66
2022-08-07T22:58:27.564Z,101988.31
2022-08-07T23:01:49.516Z,101988.63
2022-08-07T23:04:57.721Z,101991.41
2022-08-07T23:10:41.879Z,101989.44
2022-08-07T23:14:09.154Z,101995.00
2022-08-07T23:16:59.521Z,101983.06
2022-08-07T23:20:11.649Z,101997.78
2022-08-07T23:22:50.012Z,101988.63
2022-08-07T23:25:57.041Z,101992.22
2022-08-07T23:29:02.524Z,101991.41
2022-08-07T23:34:23.251Z,101998.59
2022-08-07T23:35:11.389Z,102002.50
2022-08-07T23:38:01.291Z,101995.81
2022-08-07T23:40:51.659Z,101996.94
2022-08-07T23:46:43.272Z,101993.06
2022-08-07T23:49:22.944Z,101994.16
2022-08-07T23:53:00.300Z,101996.94
2022-08-07T23:54:46.358Z,101993.06
2022-08-07T23:57:34.812Z,101991.41
